sensor_id;sensor_type;location;lat;lon;timestamp;P1;durP1;ratioP1;P2;durP2;ratioP2
21624;SDS011;10974;51.034;3.744;2023-01-13T04:18:35;8.93;;;2.33;;
21624;SDS011;10974;51.034;3.744;2023-01-13T04:21:02;6.50;;;2.37;;
21624;SDS011;10974;51.034;3.744;2023-01-13T04:23:28;13.10;;;2.50;;
21624;SDS011;10974;51.034;3.744;2023-01-13T04:25:54;12.80;;;2.47;;
21624;SDS011;10974;51.034;3.744;2023-01-13T04:28:21;10.00;;;2.30;;
21624;SDS011;10974;51.034;3.744;2023-01-13T04:30:47;11.23;;;2.53;;
21624;SDS011;10974;51.034;3.744;2023-01-13T04:33:13;8.00;;;2.10;;
21624;SDS011;10974;51.034;3.744;2023-01-13T04:35:40;11.60;;;2.60;;
21624;SDS011;10974;51.034;3.744;2023-01-13T04:38:07;5.07;;;1.93;;
21624;SDS011;10974;51.034;3.744;2023-01-13T04:40:34;14.03;;;3.07;;
21624;SDS011;10974;51.034;3.744;2023-01-13T04:43:00;4.97;;;2.47;;
21624;SDS011;10974;51.034;3.744;2023-01-13T04:45:26;9.10;;;2.50;;
21624;SDS011;10974;51.034;3.744;2023-01-13T04:47:52;8.50;;;2.40;;
21624;SDS011;10974;51.034;3.744;2023-01-13T04:50:18;20.97;;;2.87;;
21624;SDS011;10974;51.034;3.744;2023-01-13T04:52:45;10.33;;;3.13;;
21624;SDS011;10974;51.034;3.744;2023-01-13T04:55:11;20.03;;;2.97;;
21624;SDS011;10974;51.034;3.744;2023-01-13T04:57:37;7.50;;;2.40;;
21624;SDS011;10974;51.034;3.744;2023-01-13T05:00:04;11.77;;;3.27;;
21624;SDS011;10974;51.034;3.744;2023-01-13T05:02:30;11.83;;;2.97;;
21624;SDS011;10974;51.034;3.744;2023-01-13T05:04:56;10.80;;;2.80;;
21624;SDS011;10974;51.034;3.744;2023-01-13T05:07:22;7.27;;;2.70;;
21624;SDS011;10974;51.034;3.744;2023-01-13T05:09:48;8.27;;;2.17;;
21624;SDS011;10974;51.034;3.744;2023-01-13T05:12:14;10.07;;;3.50;;
21624;SDS011;10974;51.034;3.744;2023-01-13T05:14:59;12.23;;;3.20;;
21624;SDS011;10974;51.034;3.744;2023-01-13T05:17:44;13.53;;;2.83;;
21624;SDS011;10974;51.034;3.744;2023-01-13T05:20:10;10.70;;;3.17;;
21624;SDS011;10974;51.034;3.744;2023-01-13T05:22:36;11.20;;;2.80;;
21624;SDS011;10974;51.034;3.744;2023-01-13T05:25:21;12.30;;;3.20;;
21624;SDS011;10974;51.034;3.744;2023-01-13T05:27:53;12.90;;;3.40;;
21624;SDS011;10974;51.034;3.744;2023-01-13T05:30:19;11.17;;;3.57;;
21624;SDS011;10974;51.034;3.744;2023-01-13T05:32:46;8.20;;;2.90;;
21624;SDS011;10974;51.034;3.744;2023-01-13T05:35:12;15.23;;;2.97;;
21624;SDS011;10974;51.034;3.744;2023-01-13T05:37:40;9.33;;;3.10;;
21624;SDS011;10974;51.034;3.744;2023-01-13T05:40:07;4.47;;;2.10;;
21624;SDS011;10974;51.034;3.744;2023-01-13T05:43:11;8.03;;;2.50;;
21624;SDS011;10974;51.034;3.744;2023-01-13T05:45:49;12.20;;;2.60;;
21624;SDS011;10974;51.034;3.744;2023-01-13T05:48:16;10.00;;;2.83;;
21624;SDS011;10974;51.034;3.744;2023-01-13T05:50:43;15.27;;;3.20;;
21624;SDS011;10974;51.034;3.744;2023-01-13T05:53:09;8.83;;;2.80;;
21624;SDS011;10974;51.034;3.744;2023-01-13T05:55:39;10.47;;;2.90;;
21624;SDS011;10974;51.034;3.744;2023-01-13T05:58:06;10.77;;;3.00;;
21624;SDS011;10974;51.034;3.744;2023-01-13T06:00:32;11.93;;;2.80;;
21624;SDS011;10974;51.034;3.744;2023-01-13T06:02:58;9.67;;;2.57;;
21624;SDS011;10974;51.034;3.744;2023-01-13T06:05:24;14.87;;;3.20;;
21624;SDS011;10974;51.034;3.744;2023-01-13T06:07:50;10.83;;;2.93;;
21624;SDS011;10974;51.034;3.744;2023-01-13T06:10:16;9.17;;;3.07;;
21624;SDS011;10974;51.034;3.744;2023-01-13T06:12:42;16.80;;;4.10;;
21624;SDS011;10974;51.034;3.744;2023-01-13T06:15:08;8.93;;;3.50;;
21624;SDS011;10974;51.034;3.744;2023-01-13T06:17:35;12.20;;;3.40;;
21624;SDS011;10974;51.034;3.744;2023-01-13T06:20:01;7.83;;;2.90;;
21624;SDS011;10974;51.034;3.744;2023-01-13T06:22:28;10.30;;;3.43;;
21624;SDS011;10974;51.034;3.744;2023-01-13T06:24:59;13.20;;;3.87;;
21624;SDS011;10974;51.034;3.744;2023-01-13T06:27:26;12.40;;;3.50;;
21624;SDS011;10974;51.034;3.744;2023-01-13T06:29:53;11.33;;;3.90;;
21624;SDS011;10974;51.034;3.744;2023-01-13T06:32:26;13.53;;;3.33;;
21624;SDS011;10974;51.034;3.744;2023-01-13T06:34:58;12.93;;;3.47;;
21624;SDS011;10974;51.034;3.744;2023-01-13T06:37:25;13.13;;;3.67;;
21624;SDS011;10974;51.034;3.744;2023-01-13T06:39:51;15.47;;;3.83;;
21624;SDS011;10974;51.034;3.744;2023-01-13T06:42:22;14.27;;;3.73;;
21624;SDS011;10974;51.034;3.744;2023-01-13T06:45:07;17.07;;;3.73;;
21624;SDS011;10974;51.034;3.744;2023-01-13T06:47:33;12.03;;;3.60;;
21624;SDS011;10974;51.034;3.744;2023-01-13T06:49:59;12.10;;;3.90;;
21624;SDS011;10974;51.034;3.744;2023-01-13T06:52:25;15.43;;;3.90;;
21624;SDS011;10974;51.034;3.744;2023-01-13T06:54:54;14.53;;;3.27;;
21624;SDS011;10974;51.034;3.744;2023-01-13T06:57:20;11.83;;;3.33;;
21624;SDS011;10974;51.034;3.744;2023-01-13T06:59:46;12.73;;;4.03;;
21624;SDS011;10974;51.034;3.744;2023-01-13T07:02:12;16.30;;;3.30;;
21624;SDS011;10974;51.034;3.744;2023-01-13T07:04:38;15.03;;;3.97;;
21624;SDS011;10974;51.034;3.744;2023-01-13T07:07:04;12.00;;;4.30;;
21624;SDS011;10974;51.034;3.744;2023-01-13T07:09:31;17.40;;;3.83;;
21624;SDS011;10974;51.034;3.744;2023-01-13T07:11:57;18.43;;;3.70;;
21624;SDS011;10974;51.034;3.744;2023-01-13T07:14:24;12.40;;;4.07;;
21624;SDS011;10974;51.034;3.744;2023-01-13T07:17:09;16.77;;;4.10;;
21624;SDS011;10974;51.034;3.744;2023-01-13T07:19:35;13.17;;;3.97;;
21624;SDS011;10974;51.034;3.744;2023-01-13T07:22:01;11.70;;;3.13;;
21624;SDS011;10974;51.034;3.744;2023-01-13T07:24:27;21.80;;;4.03;;
21624;SDS011;10974;51.034;3.744;2023-01-13T07:26:53;12.13;;;3.20;;
21624;SDS011;10974;51.034;3.744;2023-01-13T07:29:19;12.37;;;4.30;;
21624;SDS011;10974;51.034;3.744;2023-01-13T07:31:46;10.60;;;3.00;;
21624;SDS011;10974;51.034;3.744;2023-01-13T07:34:12;16.30;;;4.37;;
21624;SDS011;10974;51.034;3.744;2023-01-13T07:36:38;12.77;;;3.60;;
21624;SDS011;10974;51.034;3.744;2023-01-13T07:39:04;17.53;;;3.90;;
21624;SDS011;10974;51.034;3.744;2023-01-13T07:41:30;15.70;;;5.00;;
21624;SDS011;10974;51.034;3.744;2023-01-13T07:44:15;20.27;;;3.60;;
21624;SDS011;10974;51.034;3.744;2023-01-13T07:46:41;19.07;;;3.50;;
21624;SDS011;10974;51.034;3.744;2023-01-13T07:49:07;14.63;;;3.60;;
21624;SDS011;10974;51.034;3.744;2023-01-13T07:51:34;15.10;;;3.27;;
21624;SDS011;10974;51.034;3.744;2023-01-13T07:54:01;12.17;;;3.97;;
21624;SDS011;10974;51.034;3.744;2023-01-13T07:56:27;14.60;;;4.13;;
21624;SDS011;10974;51.034;3.744;2023-01-13T07:58:53;21.17;;;3.83;;
21624;SDS011;10974;51.034;3.744;2023-01-13T08:01:19;19.10;;;4.40;;
21624;SDS011;10974;51.034;3.744;2023-01-13T08:03:45;17.37;;;4.30;;
21624;SDS011;10974;51.034;3.744;2023-01-13T08:06:11;14.27;;;4.13;;
21624;SDS011;10974;51.034;3.744;2023-01-13T08:08:38;15.90;;;4.40;;
21624;SDS011;10974;51.034;3.744;2023-01-13T08:11:05;14.03;;;3.73;;
21624;SDS011;10974;51.034;3.744;2023-01-13T08:13:32;16.70;;;4.97;;
21624;SDS011;10974;51.034;3.744;2023-01-13T08:16:00;15.20;;;4.30;;
21624;SDS011;10974;51.034;3.744;2023-01-13T08:18:26;15.77;;;4.50;;
21624;SDS011;10974;51.034;3.744;2023-01-13T08:20:52;19.40;;;4.63;;
21624;SDS011;10974;51.034;3.744;2023-01-13T08:23:18;15.63;;;4.77;;
21624;SDS011;10974;51.034;3.744;2023-01-13T08:25:45;21.60;;;4.77;;
21624;SDS011;10974;51.034;3.744;2023-01-13T08:28:11;17.50;;;4.50;;
21624;SDS011;10974;51.034;3.744;2023-01-13T08:30:38;18.43;;;4.50;;
21624;SDS011;10974;51.034;3.744;2023-01-13T08:33:07;15.53;;;4.23;;
21624;SDS011;10974;51.034;3.744;2023-01-13T08:35:40;20.57;;;4.30;;
21624;SDS011;10974;51.034;3.744;2023-01-13T08:38:06;17.00;;;5.00;;
21624;SDS011;10974;51.034;3.744;2023-01-13T08:40:33;16.53;;;4.60;;
21624;SDS011;10974;51.034;3.744;2023-01-13T08:42:59;20.60;;;5.27;;
21624;SDS011;10974;51.034;3.744;2023-01-13T08:45:25;17.57;;;4.70;;
21624;SDS011;10974;51.034;3.744;2023-01-13T08:47:51;17.60;;;4.10;;
21624;SDS011;10974;51.034;3.744;2023-01-13T08:50:17;23.03;;;4.10;;
21624;SDS011;10974;51.034;3.744;2023-01-13T08:52:43;17.97;;;4.50;;
21624;SDS011;10974;51.034;3.744;2023-01-13T08:55:10;14.20;;;4.30;;
21624;SDS011;10974;51.034;3.744;2023-01-13T08:57:36;21.00;;;4.90;;
21624;SDS011;10974;51.034;3.744;2023-01-13T09:00:03;20.50;;;4.60;;
21624;SDS011;10974;51.034;3.744;2023-01-13T09:02:30;18.33;;;4.00;;
21624;SDS011;10974;51.034;3.744;2023-01-13T09:04:56;18.03;;;4.00;;
21624;SDS011;10974;51.034;3.744;2023-01-13T09:07:24;16.53;;;4.20;;
21624;SDS011;10974;51.034;3.744;2023-01-13T09:09:50;12.67;;;4.30;;
21624;SDS011;10974;51.034;3.744;2023-01-13T09:12:16;13.17;;;3.80;;
21624;SDS011;10974;51.034;3.744;2023-01-13T09:15:02;12.27;;;4.13;;
21624;SDS011;10974;51.034;3.744;2023-01-13T09:17:30;13.97;;;4.67;;
21624;SDS011;10974;51.034;3.744;2023-01-13T09:19:56;13.97;;;5.17;;
21624;SDS011;10974;51.034;3.744;2023-01-13T09:22:22;14.03;;;4.33;;
21624;SDS011;10974;51.034;3.744;2023-01-13T09:24:51;19.07;;;4.20;;
21624;SDS011;10974;51.034;3.744;2023-01-13T09:27:17;23.37;;;4.37;;
21624;SDS011;10974;51.034;3.744;2023-01-13T09:29:43;17.03;;;4.00;;
21624;SDS011;10974;51.034;3.744;2023-01-13T09:32:13;17.87;;;4.60;;
21624;SDS011;10974;51.034;3.744;2023-01-13T09:34:39;21.83;;;4.17;;
21624;SDS011;10974;51.034;3.744;2023-01-13T09:37:25;16.47;;;4.87;;
21624;SDS011;10974;51.034;3.744;2023-01-13T09:39:51;17.33;;;4.37;;
21624;SDS011;10974;51.034;3.744;2023-01-13T09:45:18;18.70;;;4.67;;
21624;SDS011;10974;51.034;3.744;2023-01-13T09:48:04;12.93;;;3.73;;
21624;SDS011;10974;51.034;3.744;2023-01-13T09:53:03;12.30;;;3.87;;
21624;SDS011;10974;51.034;3.744;2023-01-13T09:55:33;13.43;;;3.50;;
21624;SDS011;10974;51.034;3.744;2023-01-13T09:58:21;11.73;;;3.60;;
21624;SDS011;10974;51.034;3.744;2023-01-13T10:03:27;11.70;;;3.27;;
21624;SDS011;10974;51.034;3.744;2023-01-13T10:08:39;8.83;;;3.47;;
21624;SDS011;10974;51.034;3.744;2023-01-13T10:11:16;17.67;;;3.30;;
21624;SDS011;10974;51.034;3.744;2023-01-13T10:14:02;11.77;;;2.77;;
21624;SDS011;10974;51.034;3.744;2023-01-13T10:27:05;8.33;;;2.60;;
21624;SDS011;10974;51.034;3.744;2023-01-13T10:29:32;13.57;;;2.83;;
21624;SDS011;10974;51.034;3.744;2023-01-13T10:32:00;17.93;;;3.83;;
21624;SDS011;10974;51.034;3.744;2023-01-13T10:34:27;10.60;;;3.03;;
21624;SDS011;10974;51.034;3.744;2023-01-13T10:36:54;6.97;;;2.77;;
21624;SDS011;10974;51.034;3.744;2023-01-13T10:39:24;23.73;;;4.77;;
21624;SDS011;10974;51.034;3.744;2023-01-13T10:42:01;15.37;;;3.20;;
21624;SDS011;10974;51.034;3.744;2023-01-13T10:44:27;10.60;;;3.33;;
21624;SDS011;10974;51.034;3.744;2023-01-13T10:46:54;9.03;;;2.70;;
21624;SDS011;10974;51.034;3.744;2023-01-13T10:49:24;9.60;;;3.10;;
21624;SDS011;10974;51.034;3.744;2023-01-13T10:51:52;17.77;;;3.70;;
21624;SDS011;10974;51.034;3.744;2023-01-13T10:54:19;11.30;;;3.60;;
21624;SDS011;10974;51.034;3.744;2023-01-13T10:56:49;15.50;;;3.50;;
21624;SDS011;10974;51.034;3.744;2023-01-13T10:59:22;10.40;;;3.27;;
21624;SDS011;10974;51.034;3.744;2023-01-13T11:04:26;13.00;;;3.07;;
21624;SDS011;10974;51.034;3.744;2023-01-13T11:06:53;14.40;;;3.20;;
21624;SDS011;10974;51.034;3.744;2023-01-13T11:09:19;14.87;;;3.90;;
21624;SDS011;10974;51.034;3.744;2023-01-13T11:11:49;11.03;;;3.23;;
21624;SDS011;10974;51.034;3.744;2023-01-13T11:16:59;18.90;;;3.43;;
21624;SDS011;10974;51.034;3.744;2023-01-13T11:19:26;17.00;;;3.70;;
21624;SDS011;10974;51.034;3.744;2023-01-13T11:21:56;18.40;;;3.00;;
21624;SDS011;10974;51.034;3.744;2023-01-13T11:26:50;11.40;;;3.30;;
21624;SDS011;10974;51.034;3.744;2023-01-13T11:29:19;13.77;;;3.17;;
21624;SDS011;10974;51.034;3.744;2023-01-13T11:31:49;10.17;;;2.73;;
21624;SDS011;10974;51.034;3.744;2023-01-13T11:36:46;18.33;;;4.40;;
21624;SDS011;10974;51.034;3.744;2023-01-13T11:41:44;9.77;;;2.60;;
21624;SDS011;10974;51.034;3.744;2023-01-13T11:46:40;9.67;;;2.90;;
21624;SDS011;10974;51.034;3.744;2023-01-13T11:49:07;13.93;;;3.17;;
21624;SDS011;10974;51.034;3.744;2023-01-13T11:51:39;10.07;;;3.40;;
21624;SDS011;10974;51.034;3.744;2023-01-13T11:54:13;14.30;;;3.50;;
21624;SDS011;10974;51.034;3.744;2023-01-13T12:01:55;13.23;;;4.80;;
21624;SDS011;10974;51.034;3.744;2023-01-13T12:04:38;11.33;;;3.23;;
21624;SDS011;10974;51.034;3.744;2023-01-13T12:09:53;9.50;;;2.90;;
21624;SDS011;10974;51.034;3.744;2023-01-13T12:12:38;13.80;;;3.33;;
21624;SDS011;10974;51.034;3.744;2023-01-13T12:23:00;8.47;;;3.23;;
21624;SDS011;10974;51.034;3.744;2023-01-13T12:26:03;10.70;;;3.30;;
21624;SDS011;10974;51.034;3.744;2023-01-13T12:28:27;15.37;;;3.17;;
21624;SDS011;10974;51.034;3.744;2023-01-13T12:30:58;13.83;;;3.20;;
21624;SDS011;10974;51.034;3.744;2023-01-13T12:33:32;16.27;;;3.43;;
21624;SDS011;10974;51.034;3.744;2023-01-13T12:36:17;9.70;;;3.03;;
21624;SDS011;10974;51.034;3.744;2023-01-13T12:38:48;10.00;;;3.33;;
21624;SDS011;10974;51.034;3.744;2023-01-13T12:43:45;15.23;;;4.30;;
21624;SDS011;10974;51.034;3.744;2023-01-13T12:51:35;12.23;;;3.23;;
21624;SDS011;10974;51.034;3.744;2023-01-13T12:56:46;10.10;;;3.30;;
21624;SDS011;10974;51.034;3.744;2023-01-13T12:59:33;12.20;;;3.13;;
21624;SDS011;10974;51.034;3.744;2023-01-13T13:07:35;9.33;;;3.03;;
21624;SDS011;10974;51.034;3.744;2023-01-13T13:10:12;10.20;;;2.63;;
21624;SDS011;10974;51.034;3.744;2023-01-13T13:15:26;12.67;;;3.40;;
21624;SDS011;10974;51.034;3.744;2023-01-13T13:28:26;13.50;;;3.30;;
21624;SDS011;10974;51.034;3.744;2023-01-13T13:31:04;10.13;;;3.13;;
21624;SDS011;10974;51.034;3.744;2023-01-13T13:33:42;12.90;;;3.43;;
21624;SDS011;10974;51.034;3.744;2023-01-13T13:36:20;14.30;;;3.07;;
21624;SDS011;10974;51.034;3.744;2023-01-13T13:38:54;11.30;;;2.93;;
21624;SDS011;10974;51.034;3.744;2023-01-13T13:41:45;11.07;;;3.40;;
21624;SDS011;10974;51.034;3.744;2023-01-13T13:44:35;17.20;;;4.53;;
21624;SDS011;10974;51.034;3.744;2023-01-13T13:47:21;10.93;;;3.20;;
21624;SDS011;10974;51.034;3.744;2023-01-13T13:49:48;7.27;;;2.80;;
21624;SDS011;10974;51.034;3.744;2023-01-13T13:54:44;12.00;;;3.00;;
21624;SDS011;10974;51.034;3.744;2023-01-13T13:57:17;14.20;;;3.03;;
21624;SDS011;10974;51.034;3.744;2023-01-13T13:59:43;11.70;;;3.30;;
21624;SDS011;10974;51.034;3.744;2023-01-13T14:02:14;8.93;;;2.70;;
21624;SDS011;10974;51.034;3.744;2023-01-13T14:04:41;9.23;;;3.67;;
21624;SDS011;10974;51.034;3.744;2023-01-13T14:07:15;8.73;;;3.13;;
21624;SDS011;10974;51.034;3.744;2023-01-13T14:09:46;10.20;;;3.23;;
21624;SDS011;10974;51.034;3.744;2023-01-13T14:12:20;9.37;;;2.80;;
21624;SDS011;10974;51.034;3.744;2023-01-13T14:14:47;9.70;;;2.80;;
21624;SDS011;10974;51.034;3.744;2023-01-13T14:17:23;54.50;;;3.43;;
21624;SDS011;10974;51.034;3.744;2023-01-13T14:19:51;10.40;;;2.40;;
21624;SDS011;10974;51.034;3.744;2023-01-13T14:22:18;11.77;;;3.00;;
21624;SDS011;10974;51.034;3.744;2023-01-13T14:24:45;8.60;;;2.80;;
21624;SDS011;10974;51.034;3.744;2023-01-13T14:27:14;10.70;;;2.90;;
21624;SDS011;10974;51.034;3.744;2023-01-13T14:29:41;11.53;;;3.00;;
21624;SDS011;10974;51.034;3.744;2023-01-13T14:32:07;11.90;;;2.77;;
21624;SDS011;10974;51.034;3.744;2023-01-13T14:34:33;11.57;;;3.03;;
21624;SDS011;10974;51.034;3.744;2023-01-13T14:37:00;15.33;;;3.50;;
21624;SDS011;10974;51.034;3.744;2023-01-13T14:39:38;18.70;;;3.80;;
21624;SDS011;10974;51.034;3.744;2023-01-13T14:42:10;10.20;;;3.00;;
21624;SDS011;10974;51.034;3.744;2023-01-13T14:44:36;9.60;;;3.27;;
21624;SDS011;10974;51.034;3.744;2023-01-13T14:47:19;13.67;;;3.73;;
21624;SDS011;10974;51.034;3.744;2023-01-13T14:52:22;12.53;;;3.10;;
21624;SDS011;10974;51.034;3.744;2023-01-13T14:54:52;15.10;;;3.57;;
21624;SDS011;10974;51.034;3.744;2023-01-13T14:57:28;10.60;;;3.07;;
21624;SDS011;10974;51.034;3.744;2023-01-13T15:02:39;10.80;;;2.60;;
21624;SDS011;10974;51.034;3.744;2023-01-13T15:07:50;12.70;;;2.80;;
21624;SDS011;10974;51.034;3.744;2023-01-13T15:10:17;9.10;;;3.23;;
21624;SDS011;10974;51.034;3.744;2023-01-13T15:12:44;12.40;;;3.23;;
21624;SDS011;10974;51.034;3.744;2023-01-13T15:15:20;11.20;;;3.60;;
21624;SDS011;10974;51.034;3.744;2023-01-13T15:17:47;9.13;;;2.87;;
21624;SDS011;10974;51.034;3.744;2023-01-13T15:20:14;10.10;;;2.70;;
21624;SDS011;10974;51.034;3.744;2023-01-13T15:22:40;6.07;;;2.33;;
21624;SDS011;10974;51.034;3.744;2023-01-13T15:25:07;9.47;;;3.10;;
21624;SDS011;10974;51.034;3.744;2023-01-13T15:27:36;10.37;;;3.33;;
21624;SDS011;10974;51.034;3.744;2023-01-13T15:30:05;15.07;;;4.20;;
21624;SDS011;10974;51.034;3.744;2023-01-13T15:32:37;10.67;;;3.07;;
21624;SDS011;10974;51.034;3.744;2023-01-13T15:35:03;8.50;;;2.77;;
21624;SDS011;10974;51.034;3.744;2023-01-13T15:37:30;9.47;;;3.10;;
21624;SDS011;10974;51.034;3.744;2023-01-13T15:39:56;9.77;;;3.30;;
21624;SDS011;10974;51.034;3.744;2023-01-13T15:42:22;12.03;;;3.60;;
21624;SDS011;10974;51.034;3.744;2023-01-13T15:45:08;12.97;;;3.50;;
21624;SDS011;10974;51.034;3.744;2023-01-13T15:47:52;10.37;;;3.10;;
21624;SDS011;10974;51.034;3.744;2023-01-13T15:50:19;10.97;;;3.17;;
21624;SDS011;10974;51.034;3.744;2023-01-13T15:52:47;9.87;;;3.37;;
21624;SDS011;10974;51.034;3.744;2023-01-13T15:55:13;10.33;;;3.17;;
21624;SDS011;10974;51.034;3.744;2023-01-13T15:57:40;24.07;;;3.63;;
21624;SDS011;10974;51.034;3.744;2023-01-13T16:00:15;12.73;;;3.90;;
21624;SDS011;10974;51.034;3.744;2023-01-13T16:02:42;11.13;;;3.23;;
21624;SDS011;10974;51.034;3.744;2023-01-13T16:05:08;12.20;;;2.83;;
21624;SDS011;10974;51.034;3.744;2023-01-13T16:07:35;12.27;;;3.40;;
21624;SDS011;10974;51.034;3.744;2023-01-13T16:10:02;16.17;;;3.77;;
21624;SDS011;10974;51.034;3.744;2023-01-13T16:12:29;12.67;;;3.10;;
21624;SDS011;10974;51.034;3.744;2023-01-13T16:14:55;9.70;;;3.10;;
21624;SDS011;10974;51.034;3.744;2023-01-13T16:17:22;13.70;;;3.57;;
21624;SDS011;10974;51.034;3.744;2023-01-13T16:19:49;13.30;;;3.30;;
21624;SDS011;10974;51.034;3.744;2023-01-13T16:22:15;13.87;;;3.60;;
21624;SDS011;10974;51.034;3.744;2023-01-13T16:24:42;10.33;;;3.00;;
21624;SDS011;10974;51.034;3.744;2023-01-13T16:27:12;13.07;;;3.00;;
21624;SDS011;10974;51.034;3.744;2023-01-13T16:29:38;12.33;;;3.57;;
21624;SDS011;10974;51.034;3.744;2023-01-13T16:32:05;9.70;;;2.97;;
21624;SDS011;10974;51.034;3.744;2023-01-13T16:34:31;11.13;;;3.00;;
21624;SDS011;10974;51.034;3.744;2023-01-13T16:36:57;11.60;;;3.33;;
21624;SDS011;10974;51.034;3.744;2023-01-13T16:39:23;18.07;;;3.43;;
21624;SDS011;10974;51.034;3.744;2023-01-13T16:41:49;12.33;;;3.30;;
21624;SDS011;10974;51.034;3.744;2023-01-13T16:44:15;11.77;;;3.37;;
21624;SDS011;10974;51.034;3.744;2023-01-13T16:46:42;10.17;;;2.90;;
21624;SDS011;10974;51.034;3.744;2023-01-13T16:49:11;15.40;;;3.80;;
21624;SDS011;10974;51.034;3.744;2023-01-13T16:51:37;12.50;;;3.20;;
21624;SDS011;10974;51.034;3.744;2023-01-13T16:54:04;8.07;;;3.10;;
21624;SDS011;10974;51.034;3.744;2023-01-13T16:56:30;13.23;;;3.70;;
21624;SDS011;10974;51.034;3.744;2023-01-13T16:58:58;12.00;;;2.97;;
21624;SDS011;10974;51.034;3.744;2023-01-13T17:01:25;12.80;;;3.17;;
21624;SDS011;10974;51.034;3.744;2023-01-13T17:03:52;17.70;;;4.17;;
21624;SDS011;10974;51.034;3.744;2023-01-13T17:06:19;11.60;;;4.13;;
21624;SDS011;10974;51.034;3.744;2023-01-13T17:08:46;9.13;;;3.20;;
21624;SDS011;10974;51.034;3.744;2023-01-13T17:11:12;9.67;;;3.47;;
21624;SDS011;10974;51.034;3.744;2023-01-13T17:13:39;21.60;;;4.23;;
21624;SDS011;10974;51.034;3.744;2023-01-13T17:16:05;14.50;;;4.10;;
21624;SDS011;10974;51.034;3.744;2023-01-13T17:18:31;15.10;;;5.20;;
21624;SDS011;10974;51.034;3.744;2023-01-13T17:20:57;17.73;;;5.20;;
21624;SDS011;10974;51.034;3.744;2023-01-13T17:23:24;20.00;;;5.13;;
21624;SDS011;10974;51.034;3.744;2023-01-13T17:25:49;18.17;;;4.60;;
21624;SDS011;10974;51.034;3.744;2023-01-13T17:28:18;13.33;;;4.50;;
21624;SDS011;10974;51.034;3.744;2023-01-13T17:30:45;15.57;;;4.70;;
21624;SDS011;10974;51.034;3.744;2023-01-13T17:33:11;11.50;;;4.30;;
21624;SDS011;10974;51.034;3.744;2023-01-13T17:35:38;15.17;;;4.60;;
21624;SDS011;10974;51.034;3.744;2023-01-13T17:38:04;18.20;;;4.97;;
21624;SDS011;10974;51.034;3.744;2023-01-13T17:40:30;21.53;;;5.37;;
21624;SDS011;10974;51.034;3.744;2023-01-13T17:42:56;16.87;;;5.03;;
21624;SDS011;10974;51.034;3.744;2023-01-13T17:45:22;19.43;;;5.13;;
21624;SDS011;10974;51.034;3.744;2023-01-13T17:47:48;14.53;;;4.67;;
21624;SDS011;10974;51.034;3.744;2023-01-13T17:50:15;12.73;;;4.63;;
21624;SDS011;10974;51.034;3.744;2023-01-13T17:52:41;17.13;;;4.17;;
21624;SDS011;10974;51.034;3.744;2023-01-13T17:55:07;14.27;;;4.60;;
21624;SDS011;10974;51.034;3.744;2023-01-13T17:57:33;13.33;;;4.23;;
21624;SDS011;10974;51.034;3.744;2023-01-13T17:59:59;12.83;;;4.00;;
21624;SDS011;10974;51.034;3.744;2023-01-13T18:02:25;11.80;;;4.27;;
21624;SDS011;10974;51.034;3.744;2023-01-13T18:04:54;17.20;;;5.53;;
21624;SDS011;10974;51.034;3.744;2023-01-13T18:07:19;19.60;;;4.80;;
21624;SDS011;10974;51.034;3.744;2023-01-13T18:09:45;13.90;;;4.50;;
21624;SDS011;10974;51.034;3.744;2023-01-13T18:12:11;15.47;;;5.37;;
21624;SDS011;10974;51.034;3.744;2023-01-13T18:14:38;16.93;;;4.80;;
21624;SDS011;10974;51.034;3.744;2023-01-13T18:17:04;18.53;;;5.00;;
21624;SDS011;10974;51.034;3.744;2023-01-13T18:19:30;17.83;;;5.27;;
21624;SDS011;10974;51.034;3.744;2023-01-13T18:22:15;18.13;;;4.77;;
21624;SDS011;10974;51.034;3.744;2023-01-13T18:25:00;20.40;;;5.33;;
21624;SDS011;10974;51.034;3.744;2023-01-13T18:27:44;15.53;;;5.13;;
21624;SDS011;10974;51.034;3.744;2023-01-13T18:30:10;16.97;;;5.00;;
21624;SDS011;10974;51.034;3.744;2023-01-13T18:32:37;22.80;;;4.90;;
21624;SDS011;10974;51.034;3.744;2023-01-13T18:35:05;25.33;;;5.77;;
21624;SDS011;10974;51.034;3.744;2023-01-13T18:37:34;22.50;;;6.40;;
21624;SDS011;10974;51.034;3.744;2023-01-13T18:40:03;18.93;;;5.70;;
21624;SDS011;10974;51.034;3.744;2023-01-13T18:42:29;21.03;;;5.77;;
21624;SDS011;10974;51.034;3.744;2023-01-13T18:45:28;19.93;;;4.53;;
21624;SDS011;10974;51.034;3.744;2023-01-13T18:47:55;19.33;;;5.40;;
21624;SDS011;10974;51.034;3.744;2023-01-13T18:50:21;19.27;;;4.70;;
21624;SDS011;10974;51.034;3.744;2023-01-13T18:52:48;17.40;;;5.03;;
21624;SDS011;10974;51.034;3.744;2023-01-13T18:55:14;24.17;;;5.23;;
21624;SDS011;10974;51.034;3.744;2023-01-13T18:57:40;21.13;;;5.37;;
21624;SDS011;10974;51.034;3.744;2023-01-13T19:00:07;21.57;;;6.20;;
21624;SDS011;10974;51.034;3.744;2023-01-13T19:02:34;25.27;;;5.00;;
21624;SDS011;10974;51.034;3.744;2023-01-13T19:05:00;19.73;;;5.00;;
21624;SDS011;10974;51.034;3.744;2023-01-13T19:07:26;25.23;;;6.13;;
21624;SDS011;10974;51.034;3.744;2023-01-13T19:09:53;29.07;;;5.53;;
21624;SDS011;10974;51.034;3.744;2023-01-13T19:12:20;21.20;;;5.27;;
21624;SDS011;10974;51.034;3.744;2023-01-13T19:14:55;19.70;;;4.60;;
21624;SDS011;10974;51.034;3.744;2023-01-13T19:17:21;23.47;;;5.33;;
21624;SDS011;10974;51.034;3.744;2023-01-13T19:19:48;18.60;;;5.27;;
21624;SDS011;10974;51.034;3.744;2023-01-13T19:22:16;18.00;;;4.83;;
21624;SDS011;10974;51.034;3.744;2023-01-13T19:24:43;23.70;;;5.40;;
21624;SDS011;10974;51.034;3.744;2023-01-13T19:27:10;21.07;;;6.60;;
21624;SDS011;10974;51.034;3.744;2023-01-13T19:29:38;23.87;;;6.47;;
21624;SDS011;10974;51.034;3.744;2023-01-13T19:32:04;24.30;;;6.43;;
21624;SDS011;10974;51.034;3.744;2023-01-13T19:34:30;23.30;;;6.00;;
21624;SDS011;10974;51.034;3.744;2023-01-13T19:36:56;22.33;;;6.17;;
21624;SDS011;10974;51.034;3.744;2023-01-13T19:39:23;22.50;;;5.93;;
21624;SDS011;10974;51.034;3.744;2023-01-13T19:41:49;22.07;;;5.50;;
21624;SDS011;10974;51.034;3.744;2023-01-13T19:44:34;25.40;;;5.23;;
21624;SDS011;10974;51.034;3.744;2023-01-13T19:47:19;19.03;;;5.00;;
21624;SDS011;10974;51.034;3.744;2023-01-13T19:49:45;23.93;;;4.50;;
21624;SDS011;10974;51.034;3.744;2023-01-13T19:52:11;19.60;;;4.83;;
21624;SDS011;10974;51.034;3.744;2023-01-13T19:54:38;16.80;;;5.00;;
21624;SDS011;10974;51.034;3.744;2023-01-13T19:57:04;20.37;;;5.33;;
21624;SDS011;10974;51.034;3.744;2023-01-13T19:59:30;15.30;;;4.47;;
21624;SDS011;10974;51.034;3.744;2023-01-13T20:02:00;22.43;;;5.07;;
21624;SDS011;10974;51.034;3.744;2023-01-13T20:04:33;22.07;;;4.97;;
21624;SDS011;10974;51.034;3.744;2023-01-13T20:07:05;16.50;;;4.47;;
21624;SDS011;10974;51.034;3.744;2023-01-13T20:09:32;16.63;;;4.40;;
21624;SDS011;10974;51.034;3.744;2023-01-13T20:11:59;15.90;;;3.93;;
21624;SDS011;10974;51.034;3.744;2023-01-13T20:14:38;17.50;;;4.63;;
21624;SDS011;10974;51.034;3.744;2023-01-13T20:17:04;13.30;;;4.13;;
21624;SDS011;10974;51.034;3.744;2023-01-13T20:19:30;17.20;;;4.40;;
21624;SDS011;10974;51.034;3.744;2023-01-13T20:21:57;21.50;;;4.63;;
21624;SDS011;10974;51.034;3.744;2023-01-13T20:24:23;20.03;;;4.73;;
21624;SDS011;10974;51.034;3.744;2023-01-13T20:26:50;19.60;;;4.80;;
21624;SDS011;10974;51.034;3.744;2023-01-13T20:29:17;21.23;;;5.17;;
21624;SDS011;10974;51.034;3.744;2023-01-13T20:31:43;14.77;;;4.87;;
21624;SDS011;10974;51.034;3.744;2023-01-13T20:34:11;18.17;;;5.80;;
21624;SDS011;10974;51.034;3.744;2023-01-13T20:36:38;16.83;;;4.90;;